Time;durP1;ratioP1;P1;durP2;ratioP2;P2;SDS_P1;SDS_P2;PMS_P1;PMS_P2;Temp;Humidity;BMP_temperature;BMP_pressure;BME280_temperature;BME280_humidity;BME280_pressure;Samples;Min_cycle;Max_cycle;Signal;HPM_P1;HPM_P2
2023/02/27 00:02:21;;;;;;;3.30;1.97;;;-0.90;76.70;;;;;;5022882;28;20201;-74
2023/02/27 00:04:47;;;;;;;5.07;3.00;;;-0.90;76.80;;;;;;5024271;28;20189;-73
2023/02/27 00:07:12;;;;;;;4.57;2.10;;;-0.90;76.70;;;;;;5020384;28;20213;-74
2023/02/27 00:09:40;;;;;;;3.20;2.30;;;-0.90;76.70;;;;;;5022126;28;20264;-73
2023/02/27 00:12:07;;;;;;;3.47;2.20;;;-0.90;76.70;;;;;;5018881;28;20178;-72
2023/02/27 00:14:32;;;;;;;2.63;1.98;;;-0.90;76.80;;;;;;5029945;28;20652;-74
2023/02/27 00:16:58;;;;;;;3.87;2.70;;;-0.80;76.80;;;;;;5020094;28;20287;-73
2023/02/27 00:19:24;;;;;;;4.40;2.40;;;-0.80;76.80;;;;;;5024962;28;20941;-73
2023/02/27 00:21:50;;;;;;;2.80;1.60;;;-0.80;76.70;;;;;;5025327;28;20196;-73
2023/02/27 00:24:15;;;;;;;3.70;2.40;;;-0.80;76.80;;;;;;5028068;28;20174;-74
2023/02/27 00:26:41;;;;;;;6.40;2.57;;;-0.90;76.80;;;;;;5022345;28;20229;-73
2023/02/27 00:29:06;;;;;;;2.90;2.17;;;-0.90;77.00;;;;;;5022454;28;20198;-73
2023/02/27 00:31:33;;;;;;;10.40;2.57;;;-1.00;77.00;;;;;;5022695;28;20182;-74
2023/02/27 00:33:59;;;;;;;3.83;2.33;;;-1.00;77.10;;;;;;5024062;28;20565;-72
2023/02/27 00:36:24;;;;;;;3.97;2.43;;;-1.00;77.10;;;;;;5021269;28;20225;-73
2023/02/27 00:38:50;;;;;;;7.50;2.23;;;-1.00;77.30;;;;;;5021011;28;20424;-72
2023/02/27 00:41:16;;;;;;;3.40;2.03;;;-0.90;77.10;;;;;;5015392;28;20186;-75
2023/02/27 00:43:41;;;;;;;2.73;2.27;;;-1.00;77.10;;;;;;5020793;28;20208;-73
2023/02/27 00:46:08;;;;;;;3.17;2.30;;;-1.00;77.10;;;;;;5013430;28;20206;-74
2023/02/27 00:48:33;;;;;;;4.32;2.20;;;-1.00;77.00;;;;;;5024645;28;20219;-75
2023/02/27 00:50:59;;;;;;;4.60;2.70;;;-1.10;77.10;;;;;;5019379;28;20216;-74
2023/02/27 00:53:24;;;;;;;5.90;2.40;;;-1.10;77.30;;;;;;5023481;28;20821;-75
2023/02/27 00:55:50;;;;;;;3.70;2.30;;;-1.10;77.30;;;;;;5014775;28;20214;-75
2023/02/27 00:58:16;;;;;;;2.97;1.90;;;-1.10;77.30;;;;;;5021549;28;20182;-73
2023/02/27 01:00:41;;;;;;;3.60;2.37;;;-1.10;77.30;;;;;;5017517;28;20193;-74
2023/02/27 01:03:07;;;;;;;3.50;2.83;;;-1.20;77.30;;;;;;5023303;28;20251;-75
2023/02/27 01:05:32;;;;;;;4.17;2.10;;;-1.20;77.40;;;;;;5022089;28;20938;-75
2023/02/27 01:07:58;;;;;;;3.80;2.30;;;-1.10;77.70;;;;;;5027582;28;20270;-75
2023/02/27 01:10:24;;;;;;;4.10;2.00;;;-1.10;77.70;;;;;;5022100;28;21007;-74
2023/02/27 01:12:49;;;;;;;5.00;3.10;;;-1.10;77.30;;;;;;5027451;28;20615;-76
2023/02/27 01:15:15;;;;;;;3.33;2.50;;;-1.10;77.30;;;;;;5032940;28;20222;-73
2023/02/27 01:17:40;;;;;;;4.37;2.07;;;-1.10;77.30;;;;;;5026883;28;20188;-73
2023/02/27 01:20:08;;;;;;;6.60;2.27;;;-1.10;77.40;;;;;;5024481;28;20659;-74
2023/02/27 01:22:33;;;;;;;3.72;2.20;;;-1.10;77.40;;;;;;5027582;28;20672;-72
2023/02/27 01:24:59;;;;;;;4.67;2.63;;;-1.10;77.40;;;;;;5024587;28;20189;-74
2023/02/27 01:27:26;;;;;;;5.47;2.25;;;-1.00;77.30;;;;;;5022472;28;20486;-74
2023/02/27 01:29:51;;;;;;;5.28;2.85;;;-1.00;77.30;;;;;;5037848;28;20189;-74
2023/02/27 01:32:17;;;;;;;3.10;2.10;;;-1.00;77.40;;;;;;5027077;28;20227;-73
2023/02/27 01:34:42;;;;;;;3.90;2.30;;;-1.00;77.40;;;;;;5025016;28;20235;-75
2023/02/27 01:37:08;;;;;;;8.53;2.60;;;-1.00;77.40;;;;;;5017612;28;20308;-75
2023/02/27 01:39:35;;;;;;;4.37;2.30;;;-1.00;77.30;;;;;;5023382;28;20190;-73
2023/02/27 01:42:01;;;;;;;7.07;3.00;;;-0.90;77.30;;;;;;5022196;28;20208;-74
2023/02/27 01:44:28;;;;;;;4.70;2.40;;;-0.90;77.30;;;;;;5021964;28;20178;-73
2023/02/27 01:46:54;;;;;;;7.07;2.33;;;-1.00;77.10;;;;;;5016903;28;20322;-72
2023/02/27 01:49:26;;;;;;;8.05;3.45;;;-1.00;77.10;;;;;;5026498;28;20186;-71
2023/02/27 01:52:01;;;;;;;5.10;2.25;;;-1.00;77.40;;;;;;5021418;28;20747;-74
2023/02/27 01:54:29;;;;;;;3.53;2.28;;;-1.00;77.30;;;;;;5026564;28;20237;-73
2023/02/27 01:56:56;;;;;;;3.75;2.55;;;-1.10;77.40;;;;;;5027273;28;20235;-72
2023/02/27 01:59:22;;;;;;;3.50;2.33;;;-1.10;77.30;;;;;;5025953;28;20204;-71
2023/02/27 02:01:48;;;;;;;3.13;2.35;;;-1.20;77.40;;;;;;5021893;28;20232;-73
2023/02/27 02:04:25;;;;;;;4.90;2.85;;;-1.20;77.60;;;;;;5026033;28;20182;-72
2023/02/27 02:07:02;;;;;;;4.07;2.22;;;-1.20;77.70;;;;;;5022641;28;20284;-73
2023/02/27 02:09:29;;;;;;;4.15;2.47;;;-1.20;77.70;;;;;;5026450;28;20201;-73
2023/02/27 02:11:56;;;;;;;4.70;2.30;;;-1.20;77.80;;;;;;5020757;28;20258;-73
2023/02/27 02:14:22;;;;;;;8.98;2.63;;;-1.20;77.70;;;;;;5024408;28;20190;-72
2023/02/27 02:16:59;;;;;;;3.70;2.27;;;-1.20;77.70;;;;;;5025818;28;20588;-74
2023/02/27 02:19:34;;;;;;;3.00;2.28;;;-1.20;77.80;;;;;;5019067;28;20776;-74
2023/02/27 02:22:25;;;;;;;4.78;3.10;;;-1.10;77.80;;;;;;5036914;28;20187;-74
2023/02/27 02:25:18;;;;;;;6.05;3.15;;;-1.20;77.70;;;;;;5036520;28;20193;-73
2023/02/27 02:28:02;;;;;;;4.47;3.00;;;-1.20;77.70;;;;;;5037512;28;20256;-73
2023/02/27 02:30:54;;;;;;;4.50;2.50;;;-1.10;78.00;;;;;;5039666;28;20181;-71
2023/02/27 02:33:37;;;;;;;5.65;2.55;;;-1.10;77.80;;;;;;5032788;28;20174;-73
2023/02/27 02:36:27;;;;;;;4.78;2.95;;;-1.10;77.80;;;;;;5041513;28;20217;-74
2023/02/27 02:39:12;;;;;;;7.68;2.80;;;-1.20;77.80;;;;;;5050470;28;20805;-73
2023/02/27 02:41:49;;;;;;;4.28;2.80;;;-1.10;78.00;;;;;;5036826;28;20189;-74
2023/02/27 02:44:41;;;;;;;4.70;2.85;;;-1.20;78.00;;;;;;5023633;28;20181;-72
2023/02/27 02:47:34;;;;;;;3.80;2.70;;;-1.20;78.00;;;;;;5026304;28;20216;-74
2023/02/27 02:50:13;;;;;;;4.80;2.88;;;-1.20;78.10;;;;;;5027347;28;20196;-74
2023/02/27 02:53:13;;;;;;;5.18;2.65;;;-1.10;78.30;;;;;;5026591;28;20192;-72
2023/02/27 02:55:55;;;;;;;3.53;2.63;;;-1.20;78.00;;;;;;4989380;28;20237;-73
2023/02/27 02:58:47;;;;;;;3.95;2.55;;;-1.20;78.10;;;;;;4988640;28;20251;-73
2023/02/27 03:01:31;;;;;;;4.65;2.35;;;-1.20;78.10;;;;;;4988505;28;20242;-73
2023/02/27 03:04:32;;;;;;;4.65;2.50;;;-1.10;78.10;;;;;;4984745;28;20542;-73
2023/02/27 03:07:12;;;;;;;4.38;2.47;;;-1.10;78.10;;;;;;4988711;28;20217;-71
2023/02/27 03:09:46;;;;;;;4.57;2.85;;;-1.10;78.10;;;;;;4986997;28;20198;-73
2023/02/27 03:12:18;;;;;;;5.43;3.20;;;-1.10;78.10;;;;;;4988425;28;20328;-72
2023/02/27 03:14:50;;;;;;;4.07;2.67;;;-1.10;78.10;;;;;;4988216;28;20199;-72
2023/02/27 03:17:51;;;;;;;3.45;2.30;;;-1.20;78.00;;;;;;4981526;28;20229;-73
2023/02/27 03:20:23;;;;;;;4.45;2.65;;;-1.20;78.30;;;;;;4986144;28;20301;-73
2023/02/27 03:22:54;;;;;;;4.13;3.08;;;-1.20;78.10;;;;;;4971792;28;20178;-73
2023/02/27 03:25:21;;;;;;;4.05;2.47;;;-1.20;78.40;;;;;;4987305;28;20704;-73
2023/02/27 03:27:56;;;;;;;4.88;2.65;;;-1.30;78.30;;;;;;4985565;28;20661;-72
2023/02/27 03:30:31;;;;;;;5.70;2.95;;;-1.30;78.40;;;;;;4988503;28;20185;-72
2023/02/27 03:33:03;;;;;;;5.78;3.03;;;-1.30;78.60;;;;;;5018493;28;20204;-73
2023/02/27 03:35:40;;;;;;;4.47;2.60;;;-1.30;78.60;;;;;;5025804;28;21235;-74
2023/02/27 03:38:16;;;;;;;5.68;2.90;;;-1.40;78.60;;;;;;5022780;28;20177;-74
2023/02/27 03:41:02;;;;;;;4.53;2.90;;;-1.30;78.70;;;;;;5023384;28;20188;-75
2023/02/27 03:43:40;;;;;;;5.93;3.58;;;-1.30;78.40;;;;;;5040564;28;20548;-73
2023/02/27 03:46:17;;;;;;;4.35;2.75;;;-1.30;78.40;;;;;;5012741;28;20201;-74
2023/02/27 03:48:44;;;;;;;6.00;2.90;;;-1.30;78.60;;;;;;5031057;28;20261;-72
2023/02/27 03:51:21;;;;;;;4.82;2.90;;;-1.20;78.60;;;;;;5027271;28;20208;-72
2023/02/27 03:54:05;;;;;;;4.10;3.00;;;-1.30;78.40;;;;;;5021224;28;20242;-72
2023/02/27 03:56:37;;;;;;;5.60;3.40;;;-1.30;78.40;;;;;;5015887;28;20213;-73
2023/02/27 03:59:04;;;;;;;4.10;2.65;;;-1.30;78.60;;;;;;5019724;28;20181;-71
2023/02/27 04:01:30;;;;;;;3.30;2.40;;;-1.40;78.60;;;;;;5029717;28;20197;-73
2023/02/27 04:04:10;;;;;;;6.30;2.97;;;-1.40;78.90;;;;;;5012238;28;20208;-75
2023/02/27 04:09:53;;;;;;;5.55;3.15;;;-1.40;78.90;;;;;;5025100;28;20293;-73
2023/02/27 04:12:50;;;;;;;5.00;3.08;;;-1.30;78.90;;;;;;5026445;28;20190;-74
2023/02/27 04:15:28;;;;;;;7.60;3.30;;;-1.30;78.90;;;;;;5022295;28;20194;-74
2023/02/27 04:18:29;;;;;;;4.28;2.58;;;-1.30;78.70;;;;;;5017668;28;20196;-74
2023/02/27 04:21:20;;;;;;;3.72;2.97;;;-1.30;78.90;;;;;;5023002;28;20320;-73
2023/02/27 04:24:03;;;;;;;4.28;3.10;;;-1.30;78.90;;;;;;5022663;28;20181;-72
2023/02/27 04:26:37;;;;;;;5.25;3.47;;;-1.40;78.70;;;;;;5024649;28;20233;-74
2023/02/27 04:29:22;;;;;;;4.13;3.00;;;-1.40;79.00;;;;;;5023307;28;20186;-74
2023/02/27 04:31:56;;;;;;;6.53;2.97;;;-1.40;79.20;;;;;;5019795;28;20727;-72
2023/02/27 04:34:27;;;;;;;8.05;4.03;;;-1.40;79.00;;;;;;5026813;28;20196;-74
2023/02/27 04:37:07;;;;;;;5.03;3.25;;;-1.40;79.20;;;;;;5023254;28;20263;-74
2023/02/27 04:39:38;;;;;;;5.05;3.30;;;-1.40;79.20;;;;;;5027308;28;20209;-73
2023/02/27 04:42:15;;;;;;;6.05;3.00;;;-1.40;79.20;;;;;;5032019;28;20645;-72
2023/02/27 04:44:42;;;;;;;5.55;3.15;;;-1.40;79.30;;;;;;5019892;28;20200;-73
2023/02/27 04:47:11;;;;;;;6.28;3.30;;;-1.40;79.30;;;;;;5023694;28;20206;-72
2023/02/27 04:49:46;;;;;;;8.52;3.92;;;-1.40;79.30;;;;;;5025813;28;20289;-72
2023/02/27 04:52:27;;;;;;;9.93;3.55;;;-1.40;79.50;;;;;;5035791;28;20193;-72
2023/02/27 04:55:04;;;;;;;6.60;2.92;;;-1.40;79.50;;;;;;5030401;28;20189;-72
2023/02/27 04:57:37;;;;;;;5.95;3.80;;;-1.40;79.50;;;;;;5024340;28;20270;-72
2023/02/27 05:00:08;;;;;;;6.50;3.50;;;-1.40;79.50;;;;;;5020568;28;20545;-73
2023/02/27 05:02:44;;;;;;;11.52;4.10;;;-1.40;79.50;;;;;;5024696;28;20944;-73
2023/02/27 05:05:15;;;;;;;4.82;3.10;;;-1.50;79.50;;;;;;5017591;28;20185;-74
2023/02/27 05:07:56;;;;;;;6.57;3.75;;;-1.40;79.60;;;;;;5022944;28;20193;-73
2023/02/27 05:10:36;;;;;;;9.07;3.92;;;-1.50;79.60;;;;;;5021547;28;20276;-73
2023/02/27 05:13:09;;;;;;;5.05;3.05;;;-1.50;79.60;;;;;;5021402;28;20565;-74
2023/02/27 05:15:51;;;;;;;5.13;3.45;;;-1.50;79.70;;;;;;5028651;28;20704;-74
2023/02/27 05:18:19;;;;;;;9.05;4.63;;;-1.50;79.70;;;;;;5028864;28;20672;-72
2023/02/27 05:20:56;;;;;;;7.72;3.58;;;-1.50;79.70;;;;;;5023479;28;20239;-73
2023/02/27 05:23:39;;;;;;;7.30;3.40;;;-1.50;79.90;;;;;;5032356;28;20715;-73
2023/02/27 05:26:05;;;;;;;7.25;3.70;;;-1.50;79.90;;;;;;5029179;28;20217;-73
2023/02/27 05:29:01;;;;;;;4.47;2.93;;;-1.50;79.90;;;;;;5046081;28;20191;-73
2023/02/27 05:31:42;;;;;;;5.85;3.58;;;-1.60;79.90;;;;;;5033064;28;20197;-72
2023/02/27 05:34:29;;;;;;;5.40;3.50;;;-1.60;80.00;;;;;;5027602;28;20225;-72
2023/02/27 05:37:00;;;;;;;7.18;3.88;;;-1.60;80.00;;;;;;5019430;28;20224;-73
2023/02/27 05:39:29;;;;;;;8.60;4.03;;;-1.70;80.00;;;;;;5028733;28;20592;-72
2023/02/27 05:42:06;;;;;;;6.60;4.38;;;-1.70;80.00;;;;;;5016887;28;20182;-72
2023/02/27 05:44:41;;;;;;;5.82;3.72;;;-1.70;80.20;;;;;;5029116;28;20268;-73
2023/02/27 05:47:15;;;;;;;7.10;3.65;;;-1.70;80.20;;;;;;5022255;28;20244;-73
2023/02/27 05:49:46;;;;;;;9.77;4.40;;;-1.70;80.30;;;;;;5029618;28;20193;-73
2023/02/27 05:52:15;;;;;;;8.48;4.28;;;-1.80;80.20;;;;;;5026000;28;20213;-71
2023/02/27 05:55:02;;;;;;;12.07;3.50;;;-1.80;80.30;;;;;;5023373;28;20583;-74
2023/02/27 05:57:41;;;;;;;7.40;4.47;;;-1.80;80.60;;;;;;5028109;28;20228;-72
2023/02/27 06:00:22;;;;;;;9.98;4.05;;;-1.90;80.80;;;;;;5026051;28;20193;-73
2023/02/27 06:02:48;;;;;;;5.75;3.85;;;-1.80;80.80;;;;;;5024772;28;20193;-74
2023/02/27 06:05:16;;;;;;;8.30;4.57;;;-1.80;80.80;;;;;;5028609;28;20184;-74
2023/02/27 06:07:42;;;;;;;7.55;4.38;;;-1.70;80.90;;;;;;5022800;28;20189;-73
2023/02/27 06:10:14;;;;;;;7.10;4.20;;;-1.70;80.80;;;;;;5026529;28;20593;-75
2023/02/27 06:12:40;;;;;;;9.20;3.97;;;-1.80;80.50;;;;;;5027623;28;20209;-73
2023/02/27 06:15:06;;;;;;;7.00;4.03;;;-1.70;80.80;;;;;;5024439;28;20214;-76
2023/02/27 06:17:32;;;;;;;6.85;3.90;;;-1.70;80.80;;;;;;5023020;28;20213;-73
2023/02/27 06:19:57;;;;;;;9.50;4.27;;;-1.80;80.80;;;;;;5026639;28;20192;-72
2023/02/27 06:22:23;;;;;;;7.53;4.10;;;-1.70;80.80;;;;;;5029146;28;20235;-74
2023/02/27 06:24:49;;;;;;;9.67;4.50;;;-1.70;80.30;;;;;;5024828;28;20209;-72
2023/02/27 06:27:14;;;;;;;9.93;4.60;;;-1.80;80.50;;;;;;5022772;28;20213;-73
2023/02/27 06:29:40;;;;;;;8.60;4.47;;;-1.80;80.80;;;;;;5026518;28;20618;-71
2023/02/27 06:32:05;;;;;;;7.70;4.50;;;-1.70;80.90;;;;;;5028976;28;20201;-74
2023/02/27 06:34:31;;;;;;;9.07;4.13;;;-1.80;80.90;;;;;;5029210;28;20188;-71
2023/02/27 06:36:56;;;;;;;7.50;4.60;;;-1.80;81.20;;;;;;5025525;28;20218;-74
2023/02/27 06:39:22;;;;;;;6.80;3.90;;;-1.70;81.10;;;;;;5024954;28;20197;-75
2023/02/27 06:41:48;;;;;;;6.60;4.33;;;-1.70;80.90;;;;;;5024744;28;20723;-74
2023/02/27 06:44:14;;;;;;;8.30;4.20;;;-1.70;80.90;;;;;;5033598;28;20267;-73
2023/02/27 06:46:39;;;;;;;6.63;4.40;;;-1.70;80.30;;;;;;5023376;28;20471;-74
2023/02/27 06:49:05;;;;;;;9.77;4.30;;;-1.70;80.30;;;;;;5034860;28;20430;-75
2023/02/27 06:51:30;;;;;;;5.67;3.90;;;-1.70;80.30;;;;;;5034574;28;20304;-73
2023/02/27 06:53:56;;;;;;;7.20;4.43;;;-1.70;80.30;;;;;;5027682;28;20189;-73
2023/02/27 06:56:21;;;;;;;6.10;4.17;;;-1.60;80.20;;;;;;5032039;28;20252;-75
2023/02/27 06:58:47;;;;;;;6.30;3.93;;;-1.70;80.00;;;;;;5036611;28;20186;-75
2023/02/27 07:01:13;;;;;;;8.23;4.23;;;-1.70;80.20;;;;;;5037975;28;20192;-75
2023/02/27 07:03:38;;;;;;;7.43;4.13;;;-1.60;80.20;;;;;;5040750;28;20189;-74
2023/02/27 07:06:04;;;;;;;9.57;4.57;;;-1.60;80.20;;;;;;5044867;28;20470;-74
2023/02/27 07:08:30;;;;;;;7.27;4.40;;;-1.60;80.20;;;;;;5041196;28;20173;-74
2023/02/27 07:10:56;;;;;;;12.23;4.90;;;-1.50;80.20;;;;;;5035932;28;20533;-75
2023/02/27 07:13:22;;;;;;;7.50;4.27;;;-1.50;79.60;;;;;;5032718;28;20185;-72
2023/02/27 07:15:48;;;;;;;7.45;4.57;;;-1.40;79.70;;;;;;5022351;28;20217;-73
2023/02/27 07:18:14;;;;;;;9.70;4.68;;;-1.40;79.60;;;;;;5030598;28;20177;-72
2023/02/27 07:20:39;;;;;;;8.70;4.97;;;-1.40;79.60;;;;;;5032800;28;20177;-73
2023/02/27 07:23:05;;;;;;;6.87;4.27;;;-1.40;79.60;;;;;;5026885;28;20260;-73
2023/02/27 07:25:31;;;;;;;8.13;4.17;;;-1.40;79.60;;;;;;5021058;28;20702;-74
2023/02/27 07:27:56;;;;;;;6.07;3.60;;;-1.40;79.50;;;;;;5022455;28;20244;-73
2023/02/27 07:30:22;;;;;;;8.77;4.93;;;-1.30;79.20;;;;;;5024392;28;20186;-74
2023/02/27 07:32:47;;;;;;;7.77;4.57;;;-1.40;79.00;;;;;;5023178;28;20177;-72
2023/02/27 07:35:13;;;;;;;7.00;4.00;;;-1.30;79.00;;;;;;5022133;28;20276;-74
2023/02/27 07:37:39;;;;;;;6.07;3.87;;;-1.30;78.90;;;;;;5025753;28;20248;-74
2023/02/27 07:40:06;;;;;;;6.10;4.07;;;-1.20;78.90;;;;;;5026961;28;20644;-75
2023/02/27 07:42:32;;;;;;;8.80;4.15;;;-1.20;78.90;;;;;;5023399;28;20173;-75
2023/02/27 07:44:57;;;;;;;6.20;3.67;;;-1.20;78.60;;;;;;5025742;28;20249;-76
2023/02/27 07:47:23;;;;;;;5.53;3.83;;;-1.10;78.90;;;;;;5024134;28;20461;-75
2023/02/27 07:49:49;;;;;;;11.23;4.87;;;-1.10;78.30;;;;;;5033048;28;20189;-74
2023/02/27 07:52:14;;;;;;;6.90;4.63;;;-1.00;78.70;;;;;;5026020;28;20217;-74
2023/02/27 07:54:40;;;;;;;8.03;4.70;;;-0.90;78.10;;;;;;5025846;28;20554;-74
2023/02/27 07:57:05;;;;;;;5.90;3.80;;;-0.90;77.80;;;;;;5026885;28;20221;-76
2023/02/27 07:59:31;;;;;;;8.80;3.83;;;-0.80;78.00;;;;;;5024471;28;20192;-76
2023/02/27 08:01:57;;;;;;;9.43;3.97;;;-0.80;77.60;;;;;;5035233;28;20284;-76
2023/02/27 08:04:23;;;;;;;5.90;3.83;;;-0.70;77.70;;;;;;5029871;28;20491;-73
2023/02/27 08:06:48;;;;;;;9.93;4.80;;;-0.80;77.00;;;;;;5020604;28;20225;-72
2023/02/27 08:09:14;;;;;;;7.07;3.90;;;-0.70;76.80;;;;;;5023277;28;20684;-75
2023/02/27 08:11:39;;;;;;;8.37;3.80;;;-0.70;76.50;;;;;;5042528;28;20200;-75
2023/02/27 08:14:06;;;;;;;11.47;4.53;;;-0.70;76.50;;;;;;5039773;28;20347;-72
2023/02/27 08:16:32;;;;;;;7.63;4.20;;;-0.60;76.50;;;;;;5040958;28;20223;-74
2023/02/27 08:18:58;;;;;;;12.70;5.23;;;-0.60;76.40;;;;;;5047392;28;20181;-73
2023/02/27 08:21:23;;;;;;;7.20;3.75;;;-0.50;76.10;;;;;;5039240;28;20431;-74
2023/02/27 08:23:49;;;;;;;7.67;4.10;;;-0.50;75.70;;;;;;5048923;28;20189;-73
2023/02/27 08:26:15;;;;;;;7.70;3.97;;;-0.50;75.80;;;;;;5026963;28;20213;-73
2023/02/27 08:28:40;;;;;;;7.77;4.40;;;-0.40;75.70;;;;;;5033296;28;20193;-73
2023/02/27 08:31:06;;;;;;;7.50;3.97;;;-0.30;75.40;;;;;;5034891;28;20188;-74
2023/02/27 08:33:33;;;;;;;11.23;4.00;;;-0.20;75.20;;;;;;5030730;28;20452;-74
2023/02/27 08:35:58;;;;;;;7.63;3.95;;;-0.20;74.20;;;;;;5022772;28;20228;-73
2023/02/27 08:38:24;;;;;;;5.47;3.83;;;-0.10;74.20;;;;;;5029868;28;20545;-72
2023/02/27 08:40:54;;;;;;;7.00;3.87;;;-0.10;74.00;;;;;;5037854;28;20185;-74
2023/02/27 08:43:20;;;;;;;6.85;3.97;;;0.00;73.30;;;;;;5037748;28;20181;-72
2023/02/27 08:45:47;;;;;;;5.88;4.00;;;0.10;73.20;;;;;;5017520;28;20206;-74
2023/02/27 08:48:14;;;;;;;9.00;4.20;;;0.20;73.20;;;;;;5024725;28;20197;-74
2023/02/27 08:50:40;;;;;;;6.72;3.65;;;0.30;72.60;;;;;;5026175;28;20208;-74
2023/02/27 08:53:06;;;;;;;8.18;4.10;;;0.30;72.00;;;;;;5025791;28;20182;-74
2023/02/27 08:55:32;;;;;;;7.87;3.90;;;0.40;71.80;;;;;;5025298;28;20233;-74
2023/02/27 08:57:57;;;;;;;7.33;3.57;;;0.50;71.40;;;;;;5030909;28;20182;-74
2023/02/27 09:00:23;;;;;;;6.10;3.43;;;0.60;71.30;;;;;;5041157;28;20200;-73
2023/02/27 09:02:49;;;;;;;8.43;4.00;;;0.60;70.50;;;;;;5038561;28;20230;-71
2023/02/27 09:05:15;;;;;;;6.33;3.63;;;0.60;70.40;;;;;;5031241;28;20212;-72
2023/02/27 09:07:41;;;;;;;5.93;3.38;;;0.70;70.10;;;;;;5026411;28;20547;-74
2023/02/27 09:10:07;;;;;;;5.87;3.67;;;0.70;69.90;;;;;;5024186;28;20276;-73
2023/02/27 09:12:33;;;;;;;6.63;3.75;;;0.90;69.90;;;;;;5028247;28;20261;-74
2023/02/27 09:14:58;;;;;;;5.20;3.20;;;0.90;69.90;;;;;;5034320;28;20200;-75
2023/02/27 09:17:24;;;;;;;4.30;3.03;;;0.90;69.20;;;;;;5032314;28;20308;-73
2023/02/27 09:19:50;;;;;;;8.80;3.80;;;0.90;68.90;;;;;;5040064;28;20192;-73
2023/02/27 09:22:16;;;;;;;10.97;3.80;;;0.90;69.20;;;;;;5033492;28;20696;-73
2023/02/27 09:24:42;;;;;;;8.07;3.83;;;1.00;69.10;;;;;;5030350;28;20176;-74
2023/02/27 09:27:07;;;;;;;6.70;4.00;;;1.10;68.90;;;;;;5025117;28;20210;-74
2023/02/27 09:29:33;;;;;;;6.00;3.67;;;1.20;68.30;;;;;;5036862;28;20197;-73
2023/02/27 09:31:58;;;;;;;6.00;3.50;;;1.30;68.00;;;;;;5024928;28;20269;-74
2023/02/27 09:34:24;;;;;;;7.40;3.47;;;1.40;67.90;;;;;;5032502;28;20190;-73
2023/02/27 09:36:50;;;;;;;4.73;3.00;;;1.50;67.30;;;;;;5026289;28;20745;-75
2023/02/27 09:39:16;;;;;;;6.35;3.80;;;1.50;66.40;;;;;;5031902;28;20426;-74
2023/02/27 09:41:58;;;;;;;5.60;3.40;;;1.50;66.90;;;;;;5026514;28;20177;-74
2023/02/27 09:44:43;;;;;;;6.60;4.28;;;1.60;66.00;;;;;;5032804;28;20515;-74
2023/02/27 09:47:32;;;;;;;5.95;3.63;;;1.70;65.80;;;;;;5034025;28;20213;-75
2023/02/27 09:50:02;;;;;;;5.00;3.03;;;1.80;64.80;;;;;;5021875;28;20300;-74
2023/02/27 09:52:31;;;;;;;7.15;3.30;;;1.90;64.20;;;;;;5027168;28;20181;-74
2023/02/27 09:54:57;;;;;;;7.22;3.30;;;1.90;63.70;;;;;;5025700;28;20189;-75
2023/02/27 09:57:36;;;;;;;9.43;3.53;;;2.00;63.10;;;;;;5033357;28;20233;-74
2023/02/27 10:00:24;;;;;;;5.20;3.03;;;2.20;62.90;;;;;;5029838;28;20432;-75
2023/02/27 10:02:58;;;;;;;5.43;3.40;;;2.30;62.20;;;;;;5019284;28;20483;-73
2023/02/27 10:05:41;;;;;;;7.23;3.00;;;2.40;61.50;;;;;;5021370;28;20426;-74
2023/02/27 10:08:29;;;;;;;4.60;2.90;;;2.60;60.90;;;;;;5026582;28;20482;-75
2023/02/27 10:11:05;;;;;;;4.53;3.20;;;2.80;59.20;;;;;;5020496;28;20505;-74
2023/02/27 10:13:52;;;;;;;5.80;3.13;;;2.90;58.40;;;;;;5021026;28;20434;-73
2023/02/27 10:16:20;;;;;;;7.13;2.67;;;3.00;56.00;;;;;;5021272;28;20510;-73
2023/02/27 10:18:49;;;;;;;5.60;2.80;;;3.00;54.60;;;;;;5020198;28;21340;-74
2023/02/27 10:21:21;;;;;;;6.07;2.90;;;2.90;54.00;;;;;;5030595;28;20435;-75
2023/02/27 10:23:49;;;;;;;4.60;3.37;;;2.80;53.80;;;;;;5015875;28;20424;-72
2023/02/27 10:26:38;;;;;;;3.63;2.47;;;2.80;53.30;;;;;;5025218;28;21280;-74
2023/02/27 10:29:19;;;;;;;4.03;2.77;;;3.00;53.60;;;;;;5023292;28;20523;-72
2023/02/27 10:31:50;;;;;;;4.20;2.70;;;3.00;53.60;;;;;;5021532;28;20436;-75
2023/02/27 10:34:16;;;;;;;4.53;2.70;;;3.00;53.80;;;;;;5023695;28;20542;-73
2023/02/27 10:36:44;;;;;;;3.40;2.40;;;3.10;53.30;;;;;;5019108;28;20847;-74
2023/02/27 10:39:15;;;;;;;10.30;2.77;;;3.10;52.80;;;;;;5022895;28;20797;-74
2023/02/27 10:41:42;;;;;;;4.37;2.63;;;3.10;52.80;;;;;;5023115;28;20547;-75
2023/02/27 10:44:13;;;;;;;2.87;2.47;;;3.30;53.00;;;;;;5026330;28;20859;-73
2023/02/27 10:46:39;;;;;;;16.50;3.73;;;3.70;52.20;;;;;;5026563;28;20828;-75
2023/02/27 10:49:19;;;;;;;4.00;2.40;;;4.00;50.70;;;;;;5029329;28;20992;-74
2023/02/27 10:52:02;;;;;;;5.07;2.70;;;4.30;48.90;;;;;;5020663;28;20981;-73
2023/02/27 10:54:27;;;;;;;5.43;2.50;;;4.50;48.30;;;;;;5028073;28;20447;-75
2023/02/27 10:56:56;;;;;;;3.50;2.20;;;4.60;47.00;;;;;;5023883;28;20987;-74
2023/02/27 10:59:34;;;;;;;5.20;2.67;;;4.90;46.60;;;;;;5032935;28;20253;-73
2023/02/27 11:02:23;;;;;;;4.60;2.33;;;5.40;45.80;;;;;;5023401;28;20443;-75
2023/02/27 11:04:52;;;;;;;3.97;2.87;;;5.60;43.20;;;;;;5020702;28;20460;-75
2023/02/27 11:07:27;;;;;;;6.33;2.80;;;5.50;43.70;;;;;;5024746;28;20468;-74
2023/02/27 11:10:02;;;;;;;3.07;1.67;;;5.40;42.70;;;;;;5020025;28;20439;-74
2023/02/27 11:12:31;;;;;;;3.23;2.20;;;5.30;43.20;;;;;;5028458;28;20419;-71
2023/02/27 11:15:17;;;;;;;3.53;2.20;;;5.20;43.80;;;;;;5017176;28;20516;-73
2023/02/27 11:17:43;;;;;;;4.23;2.33;;;5.10;43.70;;;;;;5023698;28;20506;-74
2023/02/27 11:20:32;;;;;;;4.40;2.30;;;5.10;44.50;;;;;;5021038;28;20453;-75
2023/02/27 11:23:16;;;;;;;4.40;2.87;;;5.00;45.10;;;;;;5021905;28;20190;-74
2023/02/27 11:25:43;;;;;;;3.83;2.50;;;5.10;45.10;;;;;;5024630;28;20483;-75
2023/02/27 11:28:20;;;;;;;8.67;2.80;;;5.40;45.10;;;;;;5023569;28;20451;-72
2023/02/27 11:31:02;;;;;;;3.10;2.23;;;5.40;44.20;;;;;;5023655;28;20430;-75
2023/02/27 11:33:31;;;;;;;8.03;2.60;;;5.20;44.20;;;;;;5022073;28;20787;-74
2023/02/27 11:35:58;;;;;;;4.20;2.20;;;5.20;44.70;;;;;;5022510;28;20566;-77
2023/02/27 11:38:26;;;;;;;5.27;2.33;;;5.40;44.30;;;;;;5022165;28;20462;-75
2023/02/27 11:41:03;;;;;;;3.73;2.60;;;5.40;44.20;;;;;;5022974;28;20423;-74
2023/02/27 11:43:47;;;;;;;4.53;2.47;;;5.20;44.30;;;;;;5024998;28;20799;-75
2023/02/27 11:46:20;;;;;;;13.80;3.60;;;5.10;44.70;;;;;;5024044;28;20958;-74
2023/02/27 11:48:50;;;;;;;7.50;3.10;;;5.10;44.50;;;;;;5023875;28;20442;-75
2023/02/27 11:51:23;;;;;;;4.50;2.30;;;4.90;44.70;;;;;;5023189;28;20555;-74
2023/02/27 11:54:19;;;;;;;4.37;2.63;;;4.70;45.80;;;;;;5017683;28;20515;-73
2023/02/27 11:56:59;;;;;;;4.13;2.60;;;4.60;45.90;;;;;;5018270;28;20514;-73
2023/02/27 11:59:48;;;;;;;4.97;2.40;;;4.40;46.20;;;;;;5024593;28;20602;-75
2023/02/27 12:02:39;;;;;;;7.53;2.90;;;4.50;46.30;;;;;;5017112;28;20810;-75
2023/02/27 12:05:29;;;;;;;4.33;2.67;;;4.80;46.60;;;;;;5020994;28;20424;-75
2023/02/27 12:08:16;;;;;;;4.87;3.10;;;4.90;46.20;;;;;;5019669;28;20915;-75
2023/02/27 12:10:54;;;;;;;3.23;2.23;;;5.20;45.70;;;;;;5019017;28;20428;-75
2023/02/27 12:13:37;;;;;;;5.23;2.80;;;5.30;45.70;;;;;;5021178;28;20482;-75
2023/02/27 12:16:15;;;;;;;6.07;2.53;;;5.40;45.30;;;;;;5021312;28;20566;-73
2023/02/27 12:18:50;;;;;;;4.77;2.50;;;5.60;45.10;;;;;;5021297;28;20431;-74
2023/02/27 12:21:22;;;;;;;4.77;3.07;;;5.50;44.90;;;;;;5018592;28;20436;-74
2023/02/27 12:24:01;;;;;;;3.93;2.80;;;5.30;45.40;;;;;;5020621;28;20908;-74
2023/02/27 12:26:42;;;;;;;13.30;3.17;;;5.10;46.20;;;;;;5025382;28;20466;-74
2023/02/27 12:29:59;;;;;;;7.20;3.03;;;5.10;46.70;;;;;;5020821;28;20425;-75
2023/02/27 12:32:45;;;;;;;5.87;2.80;;;5.30;46.20;;;;;;5023560;28;20433;-74
2023/02/27 12:35:28;;;;;;;4.77;2.50;;;4.80;46.30;;;;;;5009591;28;20439;-75
2023/02/27 12:37:55;;;;;;;5.20;2.50;;;4.70;47.10;;;;;;5017846;28;20476;-75
2023/02/27 12:40:28;;;;;;;4.87;2.50;;;4.50;47.10;;;;;;5009734;28;20432;-75
2023/02/27 12:43:02;;;;;;;7.50;3.47;;;4.50;47.70;;;;;;5017780;28;20797;-74
2023/02/27 12:46:05;;;;;;;4.23;2.23;;;4.30;47.80;;;;;;5009703;28;20837;-73
2023/02/27 12:48:50;;;;;;;4.20;2.53;;;4.00;48.50;;;;;;5011009;28;20432;-74
2023/02/27 12:51:33;;;;;;;5.60;2.50;;;3.90;49.00;;;;;;5021192;28;20464;-74
2023/02/27 12:54:15;;;;;;;6.80;3.23;;;4.20;49.00;;;;;;5013275;28;20998;-73
2023/02/27 12:56:57;;;;;;;5.83;2.37;;;4.60;48.50;;;;;;5021868;28;20490;-75
2023/02/27 12:59:50;;;;;;;3.90;2.80;;;5.10;47.00;;;;;;5016442;28;20431;-74
2023/02/27 13:02:15;;;;;;;4.97;2.67;;;5.00;45.70;;;;;;5027866;28;20459;-74
2023/02/27 13:05:01;;;;;;;3.30;2.50;;;4.80;46.10;;;;;;5024012;28;20438;-73
2023/02/27 13:07:34;;;;;;;5.23;2.93;;;4.70;46.50;;;;;;5021617;28;20251;-74
2023/02/27 13:10:18;;;;;;;7.83;2.83;;;4.60;46.60;;;;;;5024655;28;20954;-75
2023/02/27 13:12:53;;;;;;;5.50;2.70;;;4.40;47.80;;;;;;5022014;28;20984;-75
2023/02/27 13:15:31;;;;;;;4.37;2.83;;;4.30;48.30;;;;;;5026809;28;20419;-75
2023/02/27 13:18:06;;;;;;;3.63;2.70;;;4.30;47.50;;;;;;5028509;28;20550;-75
2023/02/27 13:20:45;;;;;;;4.33;2.80;;;4.30;48.10;;;;;;5024171;28;20514;-75
2023/02/27 13:23:24;;;;;;;2.93;2.30;;;4.50;47.80;;;;;;5027902;28;20949;-75